createdAt,value
2022-12-15T00:00:50.382Z,11.50
2022-12-15T00:03:46.586Z,8.40
2022-12-15T00:06:33.727Z,8.40
2022-12-15T00:09:20.832Z,7.70
2022-12-15T00:12:07.649Z,6.70
2022-12-15T00:14:54.832Z,9.30
2022-12-15T00:17:42.048Z,8.70
2022-12-15T00:20:29.838Z,9.50
2022-12-15T00:23:17.330Z,11.60
2022-12-15T00:26:04.447Z,9.50
2022-12-15T00:28:51.255Z,8.00
2022-12-15T00:31:38.201Z,8.60
2022-12-15T00:34:25.360Z,9.50
2022-12-15T00:37:12.423Z,8.90
2022-12-15T00:39:41.160Z,7.80
2022-12-15T00:42:10.587Z,8.10
2022-12-15T00:44:39.199Z,8.10
2022-12-15T00:47:07.843Z,6.50
2022-12-15T00:49:54.889Z,7.90
2022-12-15T00:52:42.025Z,10.90
2022-12-15T00:55:28.810Z,8.90
2022-12-15T00:58:15.838Z,8.70
2022-12-15T01:01:02.590Z,8.50
2022-12-15T01:03:49.684Z,7.90
2022-12-15T01:06:38.574Z,11.40
2022-12-15T01:09:29.073Z,10.80
2022-12-15T01:12:16.396Z,9.70
2022-12-15T01:15:03.114Z,9.90
2022-12-15T01:17:50.206Z,7.60
2022-12-15T01:20:19.073Z,6.40
2022-12-15T01:22:53.633Z,8.10
2022-12-15T01:25:26.357Z,7.00
2022-12-15T01:27:55.434Z,6.70
2022-12-15T01:30:27.099Z,7.60
2022-12-15T01:32:55.748Z,6.80
2022-12-15T01:35:24.432Z,6.90
2022-12-15T01:37:53.070Z,8.20
2022-12-15T01:40:40.213Z,8.90
2022-12-15T01:43:24.092Z,9.00
2022-12-15T01:46:23.593Z,7.50
2022-12-15T01:49:02.788Z,7.50
2022-12-15T01:51:40.145Z,7.30
2022-12-15T01:54:32.562Z,7.60
2022-12-15T01:57:09.240Z,7.70
2022-12-15T01:59:52.056Z,6.90
2022-12-15T02:02:25.421Z,7.20
2022-12-15T02:04:58.112Z,8.80
2022-12-15T02:07:27.915Z,6.80
2022-12-15T02:10:01.264Z,7.40
2022-12-15T02:12:29.995Z,7.30
2022-12-15T02:15:36.670Z,9.10
2022-12-15T02:18:23.149Z,7.20
2022-12-15T02:21:26.291Z,8.40
2022-12-15T02:24:10.889Z,7.50
2022-12-15T02:26:54.899Z,9.60
2022-12-15T02:29:47.587Z,7.00
2022-12-15T02:32:32.194Z,9.60
2022-12-15T02:35:21.733Z,7.40
2022-12-15T02:37:50.662Z,5.90
2022-12-15T02:40:19.530Z,6.20
2022-12-15T02:42:57.804Z,6.30
2022-12-15T02:45:52.587Z,6.60
2022-12-15T02:48:41.410Z,7.70
2022-12-15T02:51:50.159Z,9.80
2022-12-15T02:55:03.032Z,6.80
2022-12-15T02:58:15.234Z,7.30
2022-12-15T03:01:09.749Z,5.70
2022-12-15T03:03:40.368Z,6.00
2022-12-15T03:06:10.004Z,9.10
2022-12-15T03:08:38.662Z,7.50
2022-12-15T03:11:07.423Z,8.00
2022-12-15T03:13:36.290Z,7.70
2022-12-15T03:16:05.207Z,5.40
2022-12-15T03:18:34.378Z,6.20
2022-12-15T03:21:03.327Z,5.50
2022-12-15T03:23:34.526Z,4.90
2022-12-15T03:26:03.246Z,4.60
2022-12-15T03:28:31.916Z,6.60
2022-12-15T03:31:00.578Z,6.20
2022-12-15T03:33:29.844Z,6.50
2022-12-15T03:35:58.855Z,6.30
2022-12-15T03:38:27.531Z,12.50
2022-12-15T03:40:56.309Z,5.40
2022-12-15T03:43:25.017Z,10.20
2022-12-15T03:45:53.953Z,15.10
2022-12-15T03:48:22.814Z,7.10
2022-12-15T03:50:51.820Z,10.20
2022-12-15T03:53:20.422Z,17.10
2022-12-15T03:55:49.029Z,7.70
2022-12-15T03:58:17.752Z,6.20
2022-12-15T04:00:46.446Z,7.30
2022-12-15T04:03:15.171Z,6.40
2022-12-15T04:05:43.879Z,6.50
2022-12-15T04:08:13.148Z,6.40
2022-12-15T04:10:41.846Z,6.00
2022-12-15T04:13:12.105Z,7.40
2022-12-15T04:15:41.049Z,6.40
2022-12-15T04:18:11.428Z,5.30
2022-12-15T04:20:40.858Z,6.30
2022-12-15T04:23:09.528Z,4.80
2022-12-15T04:25:56.762Z,6.30
2022-12-15T04:28:43.577Z,5.00
2022-12-15T04:31:35.412Z,6.70
2022-12-15T04:34:28.918Z,6.10
2022-12-15T04:37:16.227Z,5.30
2022-12-15T04:40:08.410Z,5.70
2022-12-15T04:42:58.885Z,4.60
2022-12-15T04:45:46.678Z,5.40
2022-12-15T04:48:33.908Z,6.00
2022-12-15T04:51:22.741Z,6.50
2022-12-15T04:54:10.983Z,6.70
2022-12-15T04:56:58.016Z,5.70
2022-12-15T04:59:44.754Z,6.10
2022-12-15T05:02:32.046Z,5.00
2022-12-15T05:05:18.905Z,6.40
2022-12-15T05:08:05.902Z,7.60
2022-12-15T05:10:52.734Z,5.00
2022-12-15T05:13:39.751Z,7.20
2022-12-15T05:16:26.910Z,10.20
2022-12-15T05:19:13.920Z,7.30
2022-12-15T05:22:00.638Z,8.50
2022-12-15T05:24:47.549Z,9.40
2022-12-15T05:27:34.424Z,9.10
2022-12-15T05:30:21.442Z,8.90
2022-12-15T05:32:50.089Z,9.50
2022-12-15T05:35:18.927Z,9.60
2022-12-15T05:37:47.585Z,8.70
2022-12-15T05:40:16.376Z,6.80
2022-12-15T05:42:45.033Z,7.80
2022-12-15T05:45:19.017Z,5.40
2022-12-15T05:47:54.830Z,8.20
2022-12-15T05:50:24.191Z,12.60
2022-12-15T05:52:52.980Z,6.90
2022-12-15T05:55:21.630Z,26.60
2022-12-15T05:57:54.499Z,11.00
2022-12-15T06:00:23.580Z,5.80
2022-12-15T06:02:52.335Z,7.20
2022-12-15T06:05:21.059Z,10.10
2022-12-15T06:07:49.686Z,9.70
2022-12-15T06:10:18.286Z,7.50
2022-12-15T06:12:47.136Z,22.10
2022-12-15T06:15:16.546Z,11.80
2022-12-15T06:17:45.171Z,15.00
2022-12-15T06:20:18.185Z,10.00
2022-12-15T06:22:50.162Z,13.50
2022-12-15T06:25:18.918Z,7.30
2022-12-15T06:27:47.525Z,10.80
2022-12-15T06:30:16.568Z,14.30
2022-12-15T06:32:45.119Z,9.70
2022-12-15T06:35:18.519Z,8.40
2022-12-15T06:37:47.175Z,16.20
2022-12-15T06:40:15.915Z,13.20
2022-12-15T06:42:44.563Z,17.30
2022-12-15T06:45:13.240Z,8.00
2022-12-15T06:47:41.873Z,7.30
2022-12-15T06:50:10.711Z,16.20
2022-12-15T06:52:39.413Z,11.30
2022-12-15T06:55:08.883Z,7.60
2022-12-15T06:57:39.166Z,10.50
2022-12-15T07:00:09.012Z,8.30
2022-12-15T07:02:37.817Z,13.40
2022-12-15T07:05:07.160Z,15.90
2022-12-15T07:07:35.787Z,7.50
2022-12-15T07:10:05.072Z,9.50
2022-12-15T07:12:33.787Z,9.80
2022-12-15T07:15:03.195Z,7.80
2022-12-15T07:17:31.927Z,7.50
2022-12-15T07:20:00.550Z,9.20
2022-12-15T07:22:29.397Z,10.20
2022-12-15T07:24:58.299Z,9.60
2022-12-15T07:27:27.264Z,9.30
2022-12-15T07:29:55.951Z,8.40
2022-12-15T07:32:24.866Z,10.80
2022-12-15T07:34:53.443Z,10.50
2022-12-15T07:37:23.159Z,9.80
2022-12-15T07:39:51.860Z,7.40
2022-12-15T07:42:20.620Z,6.30
2022-12-15T07:44:49.914Z,4.90
2022-12-15T07:47:18.939Z,8.70
2022-12-15T07:49:47.519Z,5.60
2022-12-15T07:52:16.356Z,5.90
2022-12-15T07:54:45.529Z,5.40
2022-12-15T07:57:14.347Z,7.00
2022-12-15T07:59:44.030Z,9.80
2022-12-15T08:02:14.131Z,6.50
2022-12-15T08:04:42.940Z,8.30
2022-12-15T08:07:12.310Z,6.60
2022-12-15T08:09:40.993Z,5.20
2022-12-15T08:12:09.604Z,8.30
2022-12-15T08:14:38.222Z,6.10
2022-12-15T08:17:06.989Z,10.20
2022-12-15T08:19:35.724Z,6.20
2022-12-15T08:22:04.390Z,7.20
2022-12-15T08:24:32.979Z,5.70
2022-12-15T08:27:01.635Z,5.80
2022-12-15T08:29:50.719Z,6.20
2022-12-15T08:32:20.659Z,7.20
2022-12-15T08:34:49.873Z,9.20
2022-12-15T08:37:18.499Z,7.10
2022-12-15T08:39:48.278Z,6.50
2022-12-15T08:42:23.047Z,7.80
2022-12-15T08:44:52.336Z,8.40
2022-12-15T08:47:20.990Z,7.30
2022-12-15T08:49:50.436Z,10.20
2022-12-15T08:52:19.108Z,7.70
2022-12-15T08:54:50.922Z,7.90
2022-12-15T08:57:19.688Z,6.30
2022-12-15T08:59:48.438Z,9.40
2022-12-15T09:02:20.542Z,8.10
2022-12-15T09:04:51.076Z,11.70
2022-12-15T09:07:21.265Z,6.10
2022-12-15T09:09:49.937Z,10.30
2022-12-15T09:12:20.241Z,9.90
2022-12-15T09:14:48.808Z,7.40
2022-12-15T09:17:17.606Z,8.70
2022-12-15T09:19:46.333Z,6.60
2022-12-15T09:22:15.033Z,7.90
2022-12-15T09:24:43.719Z,8.00
2022-12-15T09:27:12.755Z,9.90
2022-12-15T09:29:41.512Z,7.60
2022-12-15T09:32:14.065Z,8.20
2022-12-15T09:37:11.835Z,8.70
2022-12-15T09:39:40.493Z,5.20
2022-12-15T09:42:28.102Z,6.80
2022-12-15T09:45:21.746Z,10.90
2022-12-15T09:50:41.457Z,10.20
2022-12-15T09:53:45.706Z,6.60
2022-12-15T09:56:21.360Z,10.00
2022-12-15T09:59:05.935Z,7.80
2022-12-15T10:01:52.840Z,7.80
2022-12-15T10:05:12.741Z,12.30
2022-12-15T10:07:46.685Z,11.30
2022-12-15T10:10:43.043Z,15.10
2022-12-15T10:13:45.788Z,15.70
2022-12-15T10:16:36.294Z,13.60
2022-12-15T10:19:27.004Z,11.70
2022-12-15T10:21:58.051Z,11.80
2022-12-15T10:25:09.059Z,12.60
2022-12-15T10:27:44.770Z,10.50
2022-12-15T10:30:15.283Z,16.90
2022-12-15T10:33:02.403Z,11.80
2022-12-15T10:35:35.610Z,15.10
2022-12-15T10:38:14.973Z,11.90
2022-12-15T10:41:07.751Z,11.70
2022-12-15T10:43:40.689Z,13.60
2022-12-15T10:46:18.978Z,7.70
2022-12-15T10:48:51.475Z,12.30
2022-12-15T10:51:31.001Z,18.10
2022-12-15T10:54:11.727Z,8.40
2022-12-15T10:56:53.317Z,11.70
2022-12-15T10:59:38.845Z,11.00
2022-12-15T11:02:37.411Z,11.00
2022-12-15T11:05:15.808Z,10.80
2022-12-15T11:07:54.533Z,9.40
2022-12-15T11:10:50.386Z,11.60
2022-12-15T11:13:22.813Z,9.40
2022-12-15T11:15:56.341Z,9.00
2022-12-15T11:18:44.892Z,6.70
2022-12-15T11:21:39.645Z,5.50
2022-12-15T11:24:18.310Z,6.40
2022-12-15T11:26:51.319Z,5.30
2022-12-15T11:32:25.372Z,5.00
2022-12-15T11:34:54.373Z,4.80
2022-12-15T11:37:40.739Z,4.60
2022-12-15T11:40:40.752Z,4.10
2022-12-15T11:43:35.876Z,5.40
2022-12-15T11:46:52.097Z,5.70
2022-12-15T11:49:44.713Z,5.20
2022-12-15T11:52:58.283Z,13.60
2022-12-15T11:56:10.068Z,34.70
2022-12-15T11:58:54.524Z,11.20
2022-12-15T12:02:12.926Z,6.30
2022-12-15T12:05:21.129Z,11.10
2022-12-15T12:08:07.977Z,4.10
2022-12-15T12:11:04.334Z,5.80
2022-12-15T12:14:11.676Z,13.60
2022-12-15T12:17:23.366Z,6.60
2022-12-15T12:20:00.236Z,8.70
2022-12-15T12:22:35.990Z,10.30
2022-12-15T12:25:19.114Z,18.80
2022-12-15T12:27:58.905Z,18.60
2022-12-15T12:30:44.600Z,6.20
2022-12-15T12:33:29.912Z,6.70
2022-12-15T12:36:06.272Z,10.60
2022-12-15T12:38:41.583Z,22.90
2022-12-15T12:41:37.004Z,6.20
2022-12-15T12:44:34.169Z,4.30
2022-12-15T12:47:36.345Z,4.00
2022-12-15T12:50:21.789Z,4.90
2022-12-15T12:52:58.218Z,10.80
2022-12-15T12:55:41.980Z,6.80
2022-12-15T12:58:41.599Z,5.10
2022-12-15T13:01:26.211Z,5.10
2022-12-15T13:04:40.418Z,11.30
2022-12-15T13:07:35.377Z,7.00
2022-12-15T13:10:09.734Z,5.40
2022-12-15T13:13:00.568Z,10.60
2022-12-15T13:15:50.893Z,9.30
2022-12-15T13:18:27.495Z,4.40
2022-12-15T13:20:58.275Z,21.30
2022-12-15T13:23:27.804Z,14.30
2022-12-15T13:25:59.387Z,6.90
2022-12-15T13:28:39.241Z,50.30
2022-12-15T13:31:17.153Z,51.10
2022-12-15T13:33:54.150Z,36.60
2022-12-15T13:36:37.991Z,11.50
2022-12-15T13:39:12.761Z,64.40
2022-12-15T13:41:54.513Z,46.10
2022-12-15T13:44:32.175Z,38.10
2022-12-15T13:47:16.765Z,38.40
2022-12-15T13:53:18.512Z,13.20
2022-12-15T13:56:24.530Z,9.90
2022-12-15T13:59:13.592Z,11.00
2022-12-15T14:01:51.639Z,10.10
2022-12-15T14:04:21.695Z,9.40
2022-12-15T14:07:00.491Z,10.90
2022-12-15T14:09:34.490Z,11.90
2022-12-15T14:12:06.769Z,10.90
2022-12-15T14:14:42.953Z,11.90
2022-12-15T14:17:16.302Z,10.40
2022-12-15T14:19:50.969Z,15.50
2022-12-15T14:22:29.023Z,11.10
2022-12-15T14:25:20.095Z,12.10
2022-12-15T14:27:50.773Z,55.90
2022-12-15T14:30:22.964Z,16.50
2022-12-15T14:33:16.530Z,14.90
2022-12-15T14:38:35.295Z,22.60
2022-12-15T14:41:06.422Z,24.80
2022-12-15T14:43:39.854Z,37.20
2022-12-15T14:46:16.131Z,41.80
2022-12-15T14:48:57.327Z,48.30
2022-12-15T14:51:31.822Z,41.10
2022-12-15T14:54:00.589Z,55.40
2022-12-15T14:56:32.844Z,50.50
2022-12-15T14:59:19.019Z,40.40
2022-12-15T15:01:59.843Z,62.00
2022-12-15T15:03:16.234Z,19.30
2022-12-15T15:04:34.317Z,36.40
2022-12-15T15:07:06.716Z,38.70
2022-12-15T15:09:43.096Z,33.70
2022-12-15T15:12:18.064Z,27.90
2022-12-15T15:14:51.825Z,19.50
2022-12-15T15:17:37.916Z,21.50
2022-12-15T15:20:37.955Z,21.00
2022-12-15T15:23:19.312Z,21.70
2022-12-15T15:25:56.695Z,23.60
2022-12-15T15:28:35.905Z,25.00
2022-12-15T15:31:41.826Z,26.30
2022-12-15T15:34:11.634Z,34.60
2022-12-15T15:36:40.484Z,31.90
2022-12-15T15:39:20.379Z,26.60
2022-12-15T15:41:49.097Z,28.70
2022-12-15T15:44:17.750Z,22.90
2022-12-15T15:46:52.197Z,22.70
2022-12-15T15:49:23.654Z,23.30
2022-12-15T15:51:52.256Z,21.10
2022-12-15T15:54:25.356Z,23.70
2022-12-15T15:59:25.326Z,22.00
2022-12-15T16:01:56.203Z,23.00
2022-12-15T16:04:26.459Z,36.60
2022-12-15T16:06:55.349Z,29.10
2022-12-15T16:09:25.096Z,34.40
2022-12-15T16:11:53.815Z,34.40
2022-12-15T16:14:22.604Z,36.70
2022-12-15T16:16:54.130Z,37.50
2022-12-15T16:19:24.103Z,40.00
2022-12-15T16:21:53.427Z,46.20
2022-12-15T16:24:22.165Z,33.10
2022-12-15T16:26:51.387Z,32.90
2022-12-15T16:29:21.583Z,43.80
2022-12-15T16:31:50.496Z,38.00
2022-12-15T16:34:24.817Z,32.20
2022-12-15T16:36:53.644Z,37.30
2022-12-15T16:39:33.655Z,37.30
2022-12-15T16:42:03.152Z,37.40
2022-12-15T16:44:31.852Z,30.40
2022-12-15T16:47:00.535Z,40.50
2022-12-15T16:49:35.105Z,43.80
2022-12-15T16:52:19.297Z,44.30
2022-12-15T16:54:50.952Z,42.90
2022-12-15T16:57:19.706Z,44.00
2022-12-15T16:59:50.050Z,40.40
2022-12-15T17:02:28.387Z,38.70
2022-12-15T17:04:57.602Z,41.30
2022-12-15T17:07:28.269Z,40.80
2022-12-15T17:09:57.126Z,37.30
2022-12-15T17:12:26.227Z,25.70
2022-12-15T17:14:54.856Z,29.10
2022-12-15T17:17:23.622Z,22.00
2022-12-15T17:20:27.546Z,26.00
2022-12-15T17:22:41.139Z,36.20
2022-12-15T17:25:44.265Z,44.10
2022-12-15T17:28:20.908Z,52.80
2022-12-15T17:30:51.813Z,36.40
2022-12-15T17:33:27.791Z,37.40
2022-12-15T17:36:01.678Z,32.90
2022-12-15T17:38:31.007Z,35.80
2022-12-15T17:41:01.286Z,44.80
2022-12-15T17:43:35.712Z,49.80
2022-12-15T17:46:05.006Z,36.30
2022-12-15T17:48:34.123Z,39.30
2022-12-15T17:51:02.845Z,40.20
2022-12-15T17:53:32.120Z,42.60
2022-12-15T17:56:01.073Z,41.40
2022-12-15T17:58:29.821Z,44.10
2022-12-15T18:00:59.302Z,47.40
2022-12-15T18:03:28.265Z,42.60
2022-12-15T18:05:57.669Z,35.30
2022-12-15T18:08:28.347Z,30.50
2022-12-15T18:10:58.272Z,33.70
2022-12-15T18:13:35.032Z,35.70
2022-12-15T18:16:04.641Z,44.30
2022-12-15T18:18:35.156Z,42.80
2022-12-15T18:21:14.724Z,33.40
2022-12-15T18:23:45.086Z,34.20
2022-12-15T18:26:15.315Z,36.30
2022-12-15T18:28:44.236Z,36.40
2022-12-15T18:31:28.217Z,38.70
2022-12-15T18:34:04.122Z,38.80
2022-12-15T18:36:33.731Z,39.30
2022-12-15T18:39:18.869Z,39.90
2022-12-15T18:41:48.724Z,41.40
2022-12-15T18:44:27.223Z,37.60
2022-12-15T18:46:56.432Z,40.10
2022-12-15T18:49:25.228Z,42.10
2022-12-15T18:51:53.949Z,44.70
2022-12-15T18:54:24.633Z,41.00
2022-12-15T18:56:54.866Z,37.00
2022-12-15T18:59:23.690Z,33.00
2022-12-15T19:01:52.464Z,43.10
2022-12-15T19:04:21.183Z,38.30
2022-12-15T19:06:49.893Z,40.40
2022-12-15T19:09:23.427Z,40.80
2022-12-15T19:14:41.540Z,37.70
2022-12-15T19:17:41.148Z,37.80
2022-12-15T19:20:37.255Z,42.10
2022-12-15T19:23:07.207Z,39.00
2022-12-15T19:25:36.021Z,40.00
2022-12-15T19:28:15.657Z,25.70
2022-12-15T19:30:45.156Z,42.10
2022-12-15T19:33:15.597Z,44.70
2022-12-15T19:35:48.900Z,41.10
2022-12-15T19:38:25.965Z,33.10
2022-12-15T19:40:56.708Z,39.00
2022-12-15T19:43:26.498Z,39.50
2022-12-15T19:45:55.192Z,41.50
2022-12-15T19:48:24.505Z,44.50
2022-12-15T19:50:54.784Z,32.20
2022-12-15T19:53:27.430Z,41.70
2022-12-15T19:56:01.646Z,47.60
2022-12-15T19:58:34.182Z,43.60
2022-12-15T20:01:07.935Z,43.80
2022-12-15T20:03:37.427Z,47.70
2022-12-15T20:06:17.368Z,39.10
2022-12-15T20:08:50.600Z,45.90
2022-12-15T20:11:24.494Z,44.80
2022-12-15T20:13:54.136Z,47.20
2022-12-15T20:16:23.756Z,47.20
2022-12-15T20:18:55.126Z,49.20
2022-12-15T20:21:31.469Z,45.70
2022-12-15T20:24:16.624Z,44.10
2022-12-15T20:26:46.116Z,41.40
2022-12-15T20:29:28.440Z,47.50
2022-12-15T20:31:59.010Z,44.20
2022-12-15T20:34:28.054Z,48.80
2022-12-15T20:36:57.415Z,42.40
2022-12-15T20:39:30.422Z,44.80
2022-12-15T20:41:59.050Z,46.20
2022-12-15T20:44:28.052Z,62.10
2022-12-15T20:46:57.402Z,47.40
2022-12-15T20:49:26.640Z,46.00
2022-12-15T20:51:55.275Z,43.60
2022-12-15T20:54:24.238Z,43.10
2022-12-15T20:56:53.517Z,45.90
2022-12-15T20:59:22.289Z,51.60
2022-12-15T21:01:51.811Z,47.70
2022-12-15T21:04:28.648Z,48.90
2022-12-15T21:06:57.770Z,48.40
2022-12-15T21:09:26.933Z,53.40
2022-12-15T21:11:55.751Z,54.20
2022-12-15T21:14:24.769Z,52.40
2022-12-15T21:16:53.990Z,54.40
2022-12-15T21:19:23.405Z,54.20
2022-12-15T21:21:55.585Z,54.80
2022-12-15T21:24:27.455Z,53.80
2022-12-15T21:26:56.565Z,55.70
2022-12-15T21:29:28.295Z,59.10
2022-12-15T21:31:57.478Z,54.30
2022-12-15T21:34:26.193Z,51.70
2022-12-15T21:36:55.543Z,58.20
2022-12-15T21:39:30.150Z,55.20
2022-12-15T21:42:03.892Z,47.80
2022-12-15T21:44:32.535Z,56.00
2022-12-15T21:47:01.279Z,50.60
2022-12-15T21:49:29.990Z,53.40
2022-12-15T21:52:01.286Z,52.40
2022-12-15T21:54:36.431Z,52.80
2022-12-15T21:57:07.029Z,56.00
2022-12-15T21:59:36.592Z,49.70
2022-12-15T22:02:24.741Z,49.80
2022-12-15T22:04:55.062Z,43.10
2022-12-15T22:07:23.920Z,47.60
2022-12-15T22:09:52.562Z,46.70
2022-12-15T22:12:24.667Z,58.00
2022-12-15T22:14:53.347Z,50.30
2022-12-15T22:17:22.974Z,50.50
2022-12-15T22:19:51.794Z,47.70
2022-12-15T22:22:20.841Z,48.10
2022-12-15T22:24:49.484Z,48.10
2022-12-15T22:27:22.909Z,45.00
2022-12-15T22:29:51.689Z,46.40
2022-12-15T22:32:20.592Z,46.70
2022-12-15T22:34:49.313Z,45.50
2022-12-15T22:37:17.871Z,45.70
2022-12-15T22:39:46.550Z,52.40
2022-12-15T22:42:17.643Z,45.60
2022-12-15T22:44:46.362Z,45.70
2022-12-15T22:47:15.028Z,43.60
2022-12-15T22:49:43.684Z,44.80
2022-12-15T22:52:21.442Z,44.30
2022-12-15T22:54:49.996Z,46.10
2022-12-15T22:57:27.367Z,47.50
2022-12-15T23:00:05.963Z,47.80
2022-12-15T23:02:40.966Z,49.60
2022-12-15T23:05:14.350Z,46.70
2022-12-15T23:07:44.411Z,59.00
2022-12-15T23:10:37.325Z,54.90
2022-12-15T23:13:07.203Z,51.30
2022-12-15T23:15:54.703Z,49.60
2022-12-15T23:18:23.452Z,60.00
2022-12-15T23:20:52.181Z,51.90
2022-12-15T23:23:20.733Z,48.40
2022-12-15T23:25:49.354Z,56.10
2022-12-15T23:28:17.943Z,47.80
2022-12-15T23:30:54.765Z,50.70
2022-12-15T23:33:25.178Z,53.50
2022-12-15T23:35:56.163Z,50.60
2022-12-15T23:38:26.128Z,42.70
2022-12-15T23:40:56.923Z,49.50
2022-12-15T23:43:27.769Z,52.20
2022-12-15T23:46:06.223Z,50.30
2022-12-15T23:48:38.470Z,54.30
2022-12-15T23:51:17.123Z,47.90
2022-12-15T23:53:47.580Z,47.30
2022-12-15T23:56:22.501Z,53.40
2022-12-15T23:58:57.760Z,46.50
